Terminal Aerodrome Forecast
Issued by NWS Twin Cities, MN

Home | Current Version | Previous Version | Graphics & Text | Print | Product List | Glossary On
Versions: 1 2 3 4 5 6 7 8 9 10 11 12 13 14
000
FTUS43 KMPX 271120
TAFEAU
TAF
KEAU 271120Z 2712/2812 26003KT P6SM SKC
     FM271500 25005KT P6SM SKC
     FM271800 23008KT P6SM FEW030
     FM280000 21003KT P6SM SKC=

USA.gov is the U.S. government's official web portal to all federal, state and local government web resources and services.